sensor_id;sensor_type;location;lat;lon;timestamp;P1;durP1;ratioP1;P2;durP2;ratioP2
10497;SDS011;5296;51.060;13.750;2024-03-08T00:02:08;23.60;;;18.17;;
10497;SDS011;5296;51.060;13.750;2024-03-08T00:07:10;24.58;;;17.85;;
10497;SDS011;5296;51.060;13.750;2024-03-08T00:12:12;23.95;;;17.50;;
10497;SDS011;5296;51.060;13.750;2024-03-08T00:17:13;24.93;;;16.70;;
10497;SDS011;5296;51.060;13.750;2024-03-08T00:22:17;23.40;;;17.63;;
10497;SDS011;5296;51.060;13.750;2024-03-08T00:27:18;23.10;;;17.75;;
10497;SDS011;5296;51.060;13.750;2024-03-08T00:32:22;21.40;;;17.08;;
10497;SDS011;5296;51.060;13.750;2024-03-08T00:37:27;23.53;;;17.33;;
10497;SDS011;5296;51.060;13.750;2024-03-08T00:42:28;22.13;;;17.23;;
10497;SDS011;5296;51.060;13.750;2024-03-08T00:47:30;23.75;;;17.73;;
10497;SDS011;5296;51.060;13.750;2024-03-08T00:52:32;21.73;;;16.83;;
10497;SDS011;5296;51.060;13.750;2024-03-08T00:57:36;22.73;;;17.77;;
10497;SDS011;5296;51.060;13.750;2024-03-08T01:02:38;23.90;;;17.43;;
10497;SDS011;5296;51.060;13.750;2024-03-08T01:07:40;20.90;;;17.17;;
10497;SDS011;5296;51.060;13.750;2024-03-08T01:12:43;22.85;;;17.67;;
10497;SDS011;5296;51.060;13.750;2024-03-08T01:17:44;23.77;;;16.57;;
10497;SDS011;5296;51.060;13.750;2024-03-08T01:22:46;24.37;;;17.23;;
10497;SDS011;5296;51.060;13.750;2024-03-08T01:27:48;23.40;;;17.20;;
10497;SDS011;5296;51.060;13.750;2024-03-08T01:32:49;21.67;;;16.83;;
10497;SDS011;5296;51.060;13.750;2024-03-08T01:37:51;22.47;;;16.90;;
10497;SDS011;5296;51.060;13.750;2024-03-08T01:42:53;20.80;;;16.80;;
10497;SDS011;5296;51.060;13.750;2024-03-08T01:47:55;22.80;;;16.63;;
10497;SDS011;5296;51.060;13.750;2024-03-08T01:52:57;21.33;;;17.00;;
10497;SDS011;5296;51.060;13.750;2024-03-08T01:58:01;23.63;;;17.13;;
10497;SDS011;5296;51.060;13.750;2024-03-08T02:03:05;22.17;;;16.27;;
10497;SDS011;5296;51.060;13.750;2024-03-08T02:08:07;20.33;;;16.07;;
10497;SDS011;5296;51.060;13.750;2024-03-08T02:13:09;25.80;;;17.17;;
10497;SDS011;5296;51.060;13.750;2024-03-08T02:18:12;23.97;;;16.30;;
10497;SDS011;5296;51.060;13.750;2024-03-08T02:23:14;20.17;;;16.10;;
10497;SDS011;5296;51.060;13.750;2024-03-08T02:28:16;22.43;;;16.87;;
10497;SDS011;5296;51.060;13.750;2024-03-08T02:33:20;22.70;;;16.37;;
10497;SDS011;5296;51.060;13.750;2024-03-08T02:38:22;21.77;;;16.97;;
10497;SDS011;5296;51.060;13.750;2024-03-08T02:43:26;25.47;;;18.60;;
10497;SDS011;5296;51.060;13.750;2024-03-08T02:48:27;26.63;;;17.80;;
10497;SDS011;5296;51.060;13.750;2024-03-08T02:53:29;25.03;;;18.07;;
10497;SDS011;5296;51.060;13.750;2024-03-08T02:58:31;24.37;;;17.77;;
10497;SDS011;5296;51.060;13.750;2024-03-08T03:03:33;25.17;;;18.30;;
10497;SDS011;5296;51.060;13.750;2024-03-08T03:08:34;26.80;;;17.23;;
10497;SDS011;5296;51.060;13.750;2024-03-08T03:13:36;24.50;;;18.53;;
10497;SDS011;5296;51.060;13.750;2024-03-08T03:18:38;27.17;;;18.10;;
10497;SDS011;5296;51.060;13.750;2024-03-08T03:23:40;24.07;;;17.03;;
10497;SDS011;5296;51.060;13.750;2024-03-08T03:28:42;24.30;;;17.77;;
10497;SDS011;5296;51.060;13.750;2024-03-08T03:33:44;25.00;;;17.80;;
10497;SDS011;5296;51.060;13.750;2024-03-08T03:38:46;24.27;;;18.80;;
10497;SDS011;5296;51.060;13.750;2024-03-08T03:43:48;23.23;;;18.13;;
10497;SDS011;5296;51.060;13.750;2024-03-08T03:48:50;24.83;;;18.23;;
10497;SDS011;5296;51.060;13.750;2024-03-08T03:53:52;25.47;;;19.30;;
10497;SDS011;5296;51.060;13.750;2024-03-08T03:58:54;23.27;;;17.57;;
10497;SDS011;5296;51.060;13.750;2024-03-08T04:03:56;23.63;;;18.77;;
10497;SDS011;5296;51.060;13.750;2024-03-08T04:08:58;24.40;;;18.43;;
10497;SDS011;5296;51.060;13.750;2024-03-08T04:13:59;29.03;;;18.73;;
10497;SDS011;5296;51.060;13.750;2024-03-08T04:19:01;26.43;;;19.03;;
10497;SDS011;5296;51.060;13.750;2024-03-08T04:24:06;23.83;;;17.77;;
10497;SDS011;5296;51.060;13.750;2024-03-08T04:29:09;23.60;;;17.77;;
10497;SDS011;5296;51.060;13.750;2024-03-08T04:34:12;23.93;;;17.63;;
10497;SDS011;5296;51.060;13.750;2024-03-08T04:39:14;24.73;;;18.17;;
10497;SDS011;5296;51.060;13.750;2024-03-08T04:44:17;26.43;;;18.37;;
10497;SDS011;5296;51.060;13.750;2024-03-08T04:49:19;26.73;;;19.10;;
10497;SDS011;5296;51.060;13.750;2024-03-08T04:54:23;25.67;;;18.03;;
10497;SDS011;5296;51.060;13.750;2024-03-08T04:59:26;24.20;;;18.27;;
10497;SDS011;5296;51.060;13.750;2024-03-08T05:04:28;25.47;;;18.23;;
10497;SDS011;5296;51.060;13.750;2024-03-08T05:09:30;29.87;;;19.47;;
10497;SDS011;5296;51.060;13.750;2024-03-08T05:14:33;25.83;;;17.70;;
10497;SDS011;5296;51.060;13.750;2024-03-08T05:19:36;26.67;;;18.53;;
10497;SDS011;5296;51.060;13.750;2024-03-08T05:24:39;27.40;;;18.70;;
10497;SDS011;5296;51.060;13.750;2024-03-08T05:29:41;24.67;;;18.50;;
10497;SDS011;5296;51.060;13.750;2024-03-08T05:34:42;26.00;;;18.67;;
10497;SDS011;5296;51.060;13.750;2024-03-08T05:39:45;24.67;;;17.77;;
10497;SDS011;5296;51.060;13.750;2024-03-08T05:44:47;26.23;;;19.40;;
10497;SDS011;5296;51.060;13.750;2024-03-08T05:49:49;26.70;;;18.50;;
10497;SDS011;5296;51.060;13.750;2024-03-08T05:54:50;26.10;;;18.43;;
10497;SDS011;5296;51.060;13.750;2024-03-08T05:59:53;24.23;;;18.37;;
10497;SDS011;5296;51.060;13.750;2024-03-08T06:04:55;27.40;;;18.63;;
10497;SDS011;5296;51.060;13.750;2024-03-08T06:09:56;28.57;;;18.97;;
10497;SDS011;5296;51.060;13.750;2024-03-08T06:14:58;25.53;;;18.27;;
10497;SDS011;5296;51.060;13.750;2024-03-08T06:20:00;27.80;;;20.27;;
10497;SDS011;5296;51.060;13.750;2024-03-08T06:25:02;26.57;;;18.20;;
10497;SDS011;5296;51.060;13.750;2024-03-08T06:30:04;26.63;;;19.27;;
10497;SDS011;5296;51.060;13.750;2024-03-08T06:35:06;27.57;;;19.83;;
10497;SDS011;5296;51.060;13.750;2024-03-08T06:40:08;26.97;;;19.70;;
10497;SDS011;5296;51.060;13.750;2024-03-08T06:45:14;28.83;;;19.13;;
10497;SDS011;5296;51.060;13.750;2024-03-08T06:50:20;26.13;;;19.47;;
10497;SDS011;5296;51.060;13.750;2024-03-08T06:55:22;28.27;;;19.90;;
10497;SDS011;5296;51.060;13.750;2024-03-08T07:00:24;28.67;;;18.70;;
10497;SDS011;5296;51.060;13.750;2024-03-08T07:05:28;28.30;;;21.20;;
10497;SDS011;5296;51.060;13.750;2024-03-08T07:10:32;28.13;;;19.73;;
10497;SDS011;5296;51.060;13.750;2024-03-08T07:15:34;31.13;;;23.00;;
10497;SDS011;5296;51.060;13.750;2024-03-08T07:20:36;27.90;;;19.57;;
10497;SDS011;5296;51.060;13.750;2024-03-08T07:25:38;25.03;;;19.33;;
10497;SDS011;5296;51.060;13.750;2024-03-08T07:30:40;25.87;;;19.43;;
10497;SDS011;5296;51.060;13.750;2024-03-08T07:35:45;30.50;;;20.67;;
10497;SDS011;5296;51.060;13.750;2024-03-08T07:40:48;27.33;;;20.93;;
10497;SDS011;5296;51.060;13.750;2024-03-08T07:45:50;27.27;;;19.20;;
10497;SDS011;5296;51.060;13.750;2024-03-08T07:50:54;28.27;;;20.20;;
10497;SDS011;5296;51.060;13.750;2024-03-08T07:55:56;27.90;;;20.20;;
10497;SDS011;5296;51.060;13.750;2024-03-08T08:00:58;27.30;;;20.00;;
10497;SDS011;5296;51.060;13.750;2024-03-08T08:06:00;26.90;;;20.43;;
10497;SDS011;5296;51.060;13.750;2024-03-08T08:11:02;28.35;;;20.13;;
10497;SDS011;5296;51.060;13.750;2024-03-08T08:16:05;27.33;;;19.83;;
10497;SDS011;5296;51.060;13.750;2024-03-08T08:21:07;26.67;;;19.03;;
10497;SDS011;5296;51.060;13.750;2024-03-08T08:26:10;27.60;;;19.73;;
10497;SDS011;5296;51.060;13.750;2024-03-08T08:31:13;25.47;;;18.70;;
10497;SDS011;5296;51.060;13.750;2024-03-08T08:36:15;28.50;;;18.97;;
10497;SDS011;5296;51.060;13.750;2024-03-08T08:41:16;25.07;;;19.83;;
10497;SDS011;5296;51.060;13.750;2024-03-08T08:46:18;24.83;;;18.50;;
10497;SDS011;5296;51.060;13.750;2024-03-08T08:51:21;24.17;;;17.53;;
10497;SDS011;5296;51.060;13.750;2024-03-08T08:56:24;26.30;;;17.90;;
10497;SDS011;5296;51.060;13.750;2024-03-08T09:01:27;22.90;;;16.93;;
10497;SDS011;5296;51.060;13.750;2024-03-08T09:06:30;22.20;;;15.57;;
10497;SDS011;5296;51.060;13.750;2024-03-08T09:11:32;21.58;;;15.35;;
10497;SDS011;5296;51.060;13.750;2024-03-08T09:16:34;20.43;;;15.37;;
10497;SDS011;5296;51.060;13.750;2024-03-08T09:21:35;24.25;;;17.88;;
10497;SDS011;5296;51.060;13.750;2024-03-08T09:26:37;23.80;;;18.48;;
10497;SDS011;5296;51.060;13.750;2024-03-08T09:31:39;22.52;;;16.42;;
10497;SDS011;5296;51.060;13.750;2024-03-08T09:36:42;22.27;;;16.50;;
10497;SDS011;5296;51.060;13.750;2024-03-08T09:41:43;21.38;;;16.13;;
10497;SDS011;5296;51.060;13.750;2024-03-08T09:46:45;19.52;;;14.93;;
10497;SDS011;5296;51.060;13.750;2024-03-08T09:51:52;21.20;;;15.80;;
10497;SDS011;5296;51.060;13.750;2024-03-08T09:56:54;17.80;;;14.30;;
10497;SDS011;5296;51.060;13.750;2024-03-08T10:01:56;17.42;;;12.70;;
10497;SDS011;5296;51.060;13.750;2024-03-08T10:06:58;19.25;;;14.02;;
10497;SDS011;5296;51.060;13.750;2024-03-08T10:12:01;16.65;;;13.20;;
10497;SDS011;5296;51.060;13.750;2024-03-08T10:17:03;19.02;;;13.68;;
10497;SDS011;5296;51.060;13.750;2024-03-08T10:22:05;17.90;;;14.07;;
10497;SDS011;5296;51.060;13.750;2024-03-08T10:27:08;19.60;;;13.00;;
10497;SDS011;5296;51.060;13.750;2024-03-08T10:32:10;18.63;;;14.65;;
10497;SDS011;5296;51.060;13.750;2024-03-08T10:37:13;19.65;;;14.60;;
10497;SDS011;5296;51.060;13.750;2024-03-08T10:42:18;18.50;;;15.15;;
10497;SDS011;5296;51.060;13.750;2024-03-08T10:47:26;19.33;;;15.20;;
10497;SDS011;5296;51.060;13.750;2024-03-08T10:52:31;20.42;;;14.75;;
10497;SDS011;5296;51.060;13.750;2024-03-08T10:57:33;17.67;;;14.32;;
10497;SDS011;5296;51.060;13.750;2024-03-08T11:02:37;21.67;;;14.55;;
10497;SDS011;5296;51.060;13.750;2024-03-08T11:07:42;19.40;;;14.43;;
10497;SDS011;5296;51.060;13.750;2024-03-08T11:12:44;20.88;;;14.73;;
10497;SDS011;5296;51.060;13.750;2024-03-08T11:17:47;20.95;;;15.50;;
10497;SDS011;5296;51.060;13.750;2024-03-08T11:22:51;18.75;;;14.45;;
10497;SDS011;5296;51.060;13.750;2024-03-08T11:28:06;19.92;;;14.85;;
10497;SDS011;5296;51.060;13.750;2024-03-08T11:33:11;16.60;;;14.38;;
10497;SDS011;5296;51.060;13.750;2024-03-08T11:38:14;16.13;;;13.25;;
10497;SDS011;5296;51.060;13.750;2024-03-08T11:43:17;15.93;;;13.38;;
10497;SDS011;5296;51.060;13.750;2024-03-08T11:48:19;16.67;;;12.75;;
10497;SDS011;5296;51.060;13.750;2024-03-08T11:53:21;17.27;;;13.63;;
10497;SDS011;5296;51.060;13.750;2024-03-08T11:58:23;18.60;;;12.88;;
10497;SDS011;5296;51.060;13.750;2024-03-08T12:03:25;15.90;;;12.50;;
10497;SDS011;5296;51.060;13.750;2024-03-08T12:08:27;14.80;;;10.77;;
10497;SDS011;5296;51.060;13.750;2024-03-08T12:13:33;11.75;;;10.15;;
10497;SDS011;5296;51.060;13.750;2024-03-08T12:18:37;13.18;;;10.60;;
10497;SDS011;5296;51.060;13.750;2024-03-08T12:23:39;12.77;;;10.70;;
10497;SDS011;5296;51.060;13.750;2024-03-08T12:28:41;13.23;;;9.75;;
10497;SDS011;5296;51.060;13.750;2024-03-08T12:38:58;12.88;;;10.57;;
10497;SDS011;5296;51.060;13.750;2024-03-08T12:44:00;12.38;;;10.40;;
10497;SDS011;5296;51.060;13.750;2024-03-08T12:49:02;13.85;;;11.00;;
10497;SDS011;5296;51.060;13.750;2024-03-08T12:54:05;11.80;;;10.23;;
10497;SDS011;5296;51.060;13.750;2024-03-08T12:59:08;13.35;;;10.90;;
10497;SDS011;5296;51.060;13.750;2024-03-08T13:04:11;11.52;;;9.82;;
10497;SDS011;5296;51.060;13.750;2024-03-08T13:09:13;13.18;;;10.20;;
10497;SDS011;5296;51.060;13.750;2024-03-08T13:14:15;13.15;;;10.38;;
10497;SDS011;5296;51.060;13.750;2024-03-08T13:19:17;12.00;;;10.35;;
10497;SDS011;5296;51.060;13.750;2024-03-08T13:24:23;14.10;;;10.88;;
10497;SDS011;5296;51.060;13.750;2024-03-08T13:29:26;12.00;;;9.93;;
10497;SDS011;5296;51.060;13.750;2024-03-08T13:34:27;12.65;;;10.50;;
10497;SDS011;5296;51.060;13.750;2024-03-08T13:39:31;12.93;;;9.95;;
10497;SDS011;5296;51.060;13.750;2024-03-08T13:49:47;13.45;;;10.48;;
10497;SDS011;5296;51.060;13.750;2024-03-08T13:54:52;12.05;;;9.75;;
10497;SDS011;5296;51.060;13.750;2024-03-08T13:59:53;11.20;;;9.25;;
10497;SDS011;5296;51.060;13.750;2024-03-08T14:04:56;11.20;;;9.38;;
10497;SDS011;5296;51.060;13.750;2024-03-08T14:09:58;11.20;;;9.30;;
10497;SDS011;5296;51.060;13.750;2024-03-08T14:15:00;10.88;;;9.32;;
10497;SDS011;5296;51.060;13.750;2024-03-08T14:20:02;11.88;;;9.25;;
10497;SDS011;5296;51.060;13.750;2024-03-08T14:25:05;11.45;;;9.07;;
10497;SDS011;5296;51.060;13.750;2024-03-08T14:30:07;10.68;;;8.60;;
10497;SDS011;5296;51.060;13.750;2024-03-08T14:35:11;10.18;;;8.45;;
10497;SDS011;5296;51.060;13.750;2024-03-08T14:40:13;9.57;;;7.63;;
10497;SDS011;5296;51.060;13.750;2024-03-08T14:45:16;11.98;;;7.47;;
10497;SDS011;5296;51.060;13.750;2024-03-08T14:50:21;9.60;;;6.93;;
10497;SDS011;5296;51.060;13.750;2024-03-08T14:55:24;8.25;;;7.30;;
10497;SDS011;5296;51.060;13.750;2024-03-08T15:00:26;8.32;;;6.82;;
10497;SDS011;5296;51.060;13.750;2024-03-08T15:05:28;8.80;;;7.32;;
10497;SDS011;5296;51.060;13.750;2024-03-08T15:10:33;8.40;;;7.47;;
10497;SDS011;5296;51.060;13.750;2024-03-08T15:15:35;9.00;;;7.53;;
10497;SDS011;5296;51.060;13.750;2024-03-08T15:20:37;9.70;;;6.57;;
10497;SDS011;5296;51.060;13.750;2024-03-08T15:25:38;10.38;;;6.88;;
10497;SDS011;5296;51.060;13.750;2024-03-08T15:30:43;8.45;;;7.55;;
10497;SDS011;5296;51.060;13.750;2024-03-08T15:35:48;9.30;;;7.28;;
10497;SDS011;5296;51.060;13.750;2024-03-08T15:40:51;8.93;;;7.25;;
10497;SDS011;5296;51.060;13.750;2024-03-08T15:45:53;8.82;;;6.72;;
10497;SDS011;5296;51.060;13.750;2024-03-08T15:50:56;7.90;;;6.97;;
10497;SDS011;5296;51.060;13.750;2024-03-08T15:55:58;9.35;;;7.22;;
10497;SDS011;5296;51.060;13.750;2024-03-08T16:01:00;8.95;;;7.78;;
10497;SDS011;5296;51.060;13.750;2024-03-08T16:06:01;9.35;;;7.38;;
10497;SDS011;5296;51.060;13.750;2024-03-08T16:11:06;10.07;;;7.57;;
10497;SDS011;5296;51.060;13.750;2024-03-08T16:16:08;9.35;;;7.30;;
10497;SDS011;5296;51.060;13.750;2024-03-08T16:21:10;11.30;;;7.72;;
10497;SDS011;5296;51.060;13.750;2024-03-08T16:26:13;9.93;;;8.00;;
10497;SDS011;5296;51.060;13.750;2024-03-08T16:31:15;10.88;;;8.93;;
10497;SDS011;5296;51.060;13.750;2024-03-08T16:36:17;12.07;;;8.98;;
10497;SDS011;5296;51.060;13.750;2024-03-08T16:41:19;12.73;;;9.93;;
10497;SDS011;5296;51.060;13.750;2024-03-08T16:46:22;10.40;;;9.07;;
10497;SDS011;5296;51.060;13.750;2024-03-08T16:51:26;12.07;;;9.52;;
10497;SDS011;5296;51.060;13.750;2024-03-08T16:56:27;11.90;;;10.60;;
10497;SDS011;5296;51.060;13.750;2024-03-08T17:01:29;12.00;;;10.23;;
10497;SDS011;5296;51.060;13.750;2024-03-08T17:06:31;10.90;;;9.70;;
10497;SDS011;5296;51.060;13.750;2024-03-08T17:11:33;11.18;;;9.35;;
10497;SDS011;5296;51.060;13.750;2024-03-08T17:16:35;9.95;;;8.57;;
10497;SDS011;5296;51.060;13.750;2024-03-08T17:21:39;9.35;;;8.20;;
10497;SDS011;5296;51.060;13.750;2024-03-08T17:26:40;9.10;;;8.07;;
10497;SDS011;5296;51.060;13.750;2024-03-08T17:31:42;9.45;;;8.40;;
10497;SDS011;5296;51.060;13.750;2024-03-08T17:36:46;9.13;;;8.13;;
10497;SDS011;5296;51.060;13.750;2024-03-08T17:41:47;9.85;;;8.20;;
10497;SDS011;5296;51.060;13.750;2024-03-08T17:46:49;9.85;;;7.05;;
10497;SDS011;5296;51.060;13.750;2024-03-08T17:51:52;9.38;;;6.95;;
10497;SDS011;5296;51.060;13.750;2024-03-08T17:56:54;8.93;;;6.85;;
10497;SDS011;5296;51.060;13.750;2024-03-08T18:01:56;7.13;;;6.40;;
10497;SDS011;5296;51.060;13.750;2024-03-08T18:06:59;20.67;;;15.43;;
10497;SDS011;5296;51.060;13.750;2024-03-08T18:12:01;21.67;;;18.30;;
10497;SDS011;5296;51.060;13.750;2024-03-08T18:17:03;28.35;;;19.92;;
10497;SDS011;5296;51.060;13.750;2024-03-08T18:22:07;31.73;;;23.75;;
10497;SDS011;5296;51.060;13.750;2024-03-08T18:27:12;34.20;;;25.70;;
10497;SDS011;5296;51.060;13.750;2024-03-08T18:32:15;33.90;;;27.13;;
10497;SDS011;5296;51.060;13.750;2024-03-08T18:37:17;33.55;;;27.73;;
10497;SDS011;5296;51.060;13.750;2024-03-08T18:42:19;35.03;;;27.73;;
10497;SDS011;5296;51.060;13.750;2024-03-08T18:47:20;33.72;;;26.42;;
10497;SDS011;5296;51.060;13.750;2024-03-08T18:52:22;38.65;;;28.33;;
10497;SDS011;5296;51.060;13.750;2024-03-08T18:57:24;37.17;;;28.58;;
10497;SDS011;5296;51.060;13.750;2024-03-08T19:02:28;35.47;;;28.45;;
10497;SDS011;5296;51.060;13.750;2024-03-08T19:07:30;34.70;;;27.52;;
10497;SDS011;5296;51.060;13.750;2024-03-08T19:12:35;34.92;;;27.38;;
10497;SDS011;5296;51.060;13.750;2024-03-08T19:17:37;36.15;;;28.63;;
10497;SDS011;5296;51.060;13.750;2024-03-08T19:22:40;34.42;;;27.35;;
10497;SDS011;5296;51.060;13.750;2024-03-08T19:27:42;36.35;;;28.35;;
10497;SDS011;5296;51.060;13.750;2024-03-08T19:32:44;37.70;;;27.80;;
10497;SDS011;5296;51.060;13.750;2024-03-08T19:37:46;35.00;;;26.55;;
10497;SDS011;5296;51.060;13.750;2024-03-08T19:42:48;36.17;;;26.98;;
10497;SDS011;5296;51.060;13.750;2024-03-08T19:47:53;27.13;;;21.13;;
10497;SDS011;5296;51.060;13.750;2024-03-08T19:52:56;17.13;;;13.35;;
10497;SDS011;5296;51.060;13.750;2024-03-08T19:58:09;12.38;;;10.07;;
10497;SDS011;5296;51.060;13.750;2024-03-08T20:03:13;11.15;;;8.90;;
10497;SDS011;5296;51.060;13.750;2024-03-08T20:08:22;10.88;;;9.02;;
10497;SDS011;5296;51.060;13.750;2024-03-08T20:13:29;11.13;;;8.70;;
10497;SDS011;5296;51.060;13.750;2024-03-08T20:18:31;9.40;;;8.07;;
10497;SDS011;5296;51.060;13.750;2024-03-08T20:23:34;10.80;;;8.90;;
10497;SDS011;5296;51.060;13.750;2024-03-08T20:28:36;11.68;;;8.35;;
10497;SDS011;5296;51.060;13.750;2024-03-08T20:33:40;11.15;;;8.15;;
10497;SDS011;5296;51.060;13.750;2024-03-08T20:38:43;9.52;;;8.50;;
10497;SDS011;5296;51.060;13.750;2024-03-08T20:43:44;11.90;;;8.82;;
10497;SDS011;5296;51.060;13.750;2024-03-08T20:48:46;11.82;;;9.07;;
10497;SDS011;5296;51.060;13.750;2024-03-08T20:53:50;10.60;;;8.73;;
10497;SDS011;5296;51.060;13.750;2024-03-08T20:58:55;11.70;;;9.05;;
10497;SDS011;5296;51.060;13.750;2024-03-08T21:03:57;10.30;;;8.52;;
10497;SDS011;5296;51.060;13.750;2024-03-08T21:08:59;11.02;;;8.48;;
10497;SDS011;5296;51.060;13.750;2024-03-08T21:14:01;11.48;;;8.77;;
10497;SDS011;5296;51.060;13.750;2024-03-08T21:19:02;11.00;;;9.18;;
10497;SDS011;5296;51.060;13.750;2024-03-08T21:24:04;10.80;;;9.50;;
10497;SDS011;5296;51.060;13.750;2024-03-08T21:29:06;13.93;;;9.30;;
10497;SDS011;5296;51.060;13.750;2024-03-08T21:34:10;11.02;;;9.10;;
10497;SDS011;5296;51.060;13.750;2024-03-08T21:39:11;12.43;;;10.00;;
10497;SDS011;5296;51.060;13.750;2024-03-08T21:44:13;13.15;;;9.93;;
10497;SDS011;5296;51.060;13.750;2024-03-08T21:49:16;14.18;;;10.40;;
10497;SDS011;5296;51.060;13.750;2024-03-08T21:54:18;14.48;;;10.27;;
10497;SDS011;5296;51.060;13.750;2024-03-08T21:59:21;15.15;;;10.52;;
10497;SDS011;5296;51.060;13.750;2024-03-08T22:04:22;14.20;;;10.60;;
10497;SDS011;5296;51.060;13.750;2024-03-08T22:09:24;13.85;;;10.13;;
10497;SDS011;5296;51.060;13.750;2024-03-08T22:14:26;12.73;;;9.43;;
10497;SDS011;5296;51.060;13.750;2024-03-08T22:19:28;14.07;;;10.63;;
10497;SDS011;5296;51.060;13.750;2024-03-08T22:24:30;14.38;;;11.15;;
10497;SDS011;5296;51.060;13.750;2024-03-08T22:29:32;13.48;;;9.88;;
10497;SDS011;5296;51.060;13.750;2024-03-08T22:34:34;15.45;;;11.27;;
10497;SDS011;5296;51.060;13.750;2024-03-08T22:39:40;15.45;;;11.57;;
10497;SDS011;5296;51.060;13.750;2024-03-08T22:44:42;12.73;;;10.13;;
10497;SDS011;5296;51.060;13.750;2024-03-08T22:49:43;15.15;;;10.45;;
10497;SDS011;5296;51.060;13.750;2024-03-08T22:54:45;16.00;;;10.10;;
10497;SDS011;5296;51.060;13.750;2024-03-08T22:59:48;14.23;;;10.77;;
10497;SDS011;5296;51.060;13.750;2024-03-08T23:04:51;13.48;;;10.10;;
10497;SDS011;5296;51.060;13.750;2024-03-08T23:09:53;15.00;;;10.50;;
10497;SDS011;5296;51.060;13.750;2024-03-08T23:14:55;14.07;;;10.57;;
10497;SDS011;5296;51.060;13.750;2024-03-08T23:19:57;14.27;;;11.07;;
10497;SDS011;5296;51.060;13.750;2024-03-08T23:24:59;15.38;;;10.48;;
10497;SDS011;5296;51.060;13.750;2024-03-08T23:30:00;15.07;;;11.38;;
10497;SDS011;5296;51.060;13.750;2024-03-08T23:35:02;13.50;;;10.15;;
10497;SDS011;5296;51.060;13.750;2024-03-08T23:40:07;13.98;;;10.23;;
10497;SDS011;5296;51.060;13.750;2024-03-08T23:45:12;13.68;;;10.13;;
10497;SDS011;5296;51.060;13.750;2024-03-08T23:50:17;16.20;;;10.50;;
10497;SDS011;5296;51.060;13.750;2024-03-08T23:55:24;12.90;;;9.68;;
